sensor_id;sensor_type;location;lat;lon;timestamp;P1;P2;P0
55304;PMS7003;65692;51.378;19.824;2023-02-11T00:08:43;30.25;24.50;19.50
55304;PMS7003;65692;51.378;19.824;2023-02-11T00:11:27;27.75;24.00;16.00
55304;PMS7003;65692;51.378;19.824;2023-02-11T00:14:20;35.25;26.50;20.25
55304;PMS7003;65692;51.378;19.824;2023-02-11T00:16:49;42.25;24.00;17.00
55304;PMS7003;65692;51.378;19.824;2023-02-11T00:19:22;30.50;24.50;17.00
55304;PMS7003;65692;51.378;19.824;2023-02-11T00:22:05;29.00;20.50;14.00
55304;PMS7003;65692;51.378;19.824;2023-02-11T00:24:54;41.00;29.25;19.25
55304;PMS7003;65692;51.378;19.824;2023-02-11T00:27:42;31.00;23.75;17.00
55304;PMS7003;65692;51.378;19.824;2023-02-11T00:30:09;41.00;29.25;17.00
55304;PMS7003;65692;51.378;19.824;2023-02-11T00:32:55;26.50;22.00;18.25
55304;PMS7003;65692;51.378;19.824;2023-02-11T00:35:24;27.75;16.50;12.00
55304;PMS7003;65692;51.378;19.824;2023-02-11T00:38:16;27.25;23.25;15.50
55304;PMS7003;65692;51.378;19.824;2023-02-11T00:40:58;28.25;22.25;16.00
55304;PMS7003;65692;51.378;19.824;2023-02-11T00:44:02;25.25;19.75;15.50
55304;PMS7003;65692;51.378;19.824;2023-02-11T00:46:29;30.00;26.50;18.25
55304;PMS7003;65692;51.378;19.824;2023-02-11T00:48:59;28.25;19.00;15.50
55304;PMS7003;65692;51.378;19.824;2023-02-11T00:51:29;23.50;19.00;13.00
55304;PMS7003;65692;51.378;19.824;2023-02-11T00:54:10;23.50;22.25;16.00
55304;PMS7003;65692;51.378;19.824;2023-02-11T00:56:37;24.00;21.50;16.00
55304;PMS7003;65692;51.378;19.824;2023-02-11T00:59:22;34.25;25.50;18.25
55304;PMS7003;65692;51.378;19.824;2023-02-11T01:04:58;25.00;20.00;14.50
55304;PMS7003;65692;51.378;19.824;2023-02-11T01:07:59;35.25;28.25;16.75
55304;PMS7003;65692;51.378;19.824;2023-02-11T01:10:29;28.50;19.25;16.00
55304;PMS7003;65692;51.378;19.824;2023-02-11T01:13:01;34.75;22.25;16.00
55304;PMS7003;65692;51.378;19.824;2023-02-11T01:15:29;23.50;19.25;15.25
55304;PMS7003;65692;51.378;19.824;2023-02-11T01:18:10;25.75;20.25;16.00
55304;PMS7003;65692;51.378;19.824;2023-02-11T01:20:43;23.75;17.25;12.00
55304;PMS7003;65692;51.378;19.824;2023-02-11T01:23:28;26.67;20.00;14.00
55304;PMS7003;65692;51.378;19.824;2023-02-11T01:26:07;20.50;19.25;15.50
55304;PMS7003;65692;51.378;19.824;2023-02-11T01:28:45;19.50;17.00;13.00
55304;PMS7003;65692;51.378;19.824;2023-02-11T01:31:12;21.50;18.00;14.00
55304;PMS7003;65692;51.378;19.824;2023-02-11T01:33:40;21.75;15.50;10.75
55304;PMS7003;65692;51.378;19.824;2023-02-11T01:36:26;29.50;19.25;14.50
55304;PMS7003;65692;51.378;19.824;2023-02-11T01:39:11;33.50;21.25;15.00
55304;PMS7003;65692;51.378;19.824;2023-02-11T01:41:38;24.75;17.25;13.00
55304;PMS7003;65692;51.378;19.824;2023-02-11T01:46:50;21.25;19.75;13.25
55304;PMS7003;65692;51.378;19.824;2023-02-11T01:49:20;21.25;20.50;14.00
55304;PMS7003;65692;51.378;19.824;2023-02-11T01:51:55;20.00;15.00;12.50
55304;PMS7003;65692;51.378;19.824;2023-02-11T01:54:46;22.50;16.75;11.00
55304;PMS7003;65692;51.378;19.824;2023-02-11T01:58:09;16.33;15.33;11.67
55304;PMS7003;65692;51.378;19.824;2023-02-11T02:00:50;12.33;10.33;8.00
55304;PMS7003;65692;51.378;19.824;2023-02-11T02:04:03;17.00;13.00;10.25
55304;PMS7003;65692;51.378;19.824;2023-02-11T02:06:55;21.00;13.00;10.25
55304;PMS7003;65692;51.378;19.824;2023-02-11T02:09:25;19.25;14.25;13.00
55304;PMS7003;65692;51.378;19.824;2023-02-11T02:11:54;19.25;18.50;13.50
55304;PMS7003;65692;51.378;19.824;2023-02-11T02:14:45;22.75;19.00;13.50
55304;PMS7003;65692;51.378;19.824;2023-02-11T02:17:31;22.00;18.50;13.00
55304;PMS7003;65692;51.378;19.824;2023-02-11T02:20:59;25.25;20.50;14.25
55304;PMS7003;65692;51.378;19.824;2023-02-11T02:26:49;28.00;23.25;17.25
55304;PMS7003;65692;51.378;19.824;2023-02-11T02:40:48;38.00;29.50;20.25
55304;PMS7003;65692;51.378;19.824;2023-02-11T02:43:31;32.75;27.75;17.50
55304;PMS7003;65692;51.378;19.824;2023-02-11T02:48:48;39.75;34.25;22.25
55304;PMS7003;65692;51.378;19.824;2023-02-11T02:59:44;38.25;33.00;22.00
55304;PMS7003;65692;51.378;19.824;2023-02-11T03:02:21;40.00;27.00;19.50
55304;PMS7003;65692;51.378;19.824;2023-02-11T03:07:47;41.25;32.25;23.75
55304;PMS7003;65692;51.378;19.824;2023-02-11T03:10:32;37.75;33.00;23.50
55304;PMS7003;65692;51.378;19.824;2023-02-11T03:13:10;43.25;33.75;27.75
55304;PMS7003;65692;51.378;19.824;2023-02-11T03:15:49;31.25;24.25;20.00
55304;PMS7003;65692;51.378;19.824;2023-02-11T03:18:19;51.25;41.75;27.75
55304;PMS7003;65692;51.378;19.824;2023-02-11T03:20:55;39.00;28.75;20.00
55304;PMS7003;65692;51.378;19.824;2023-02-11T03:23:25;50.75;38.50;26.50
55304;PMS7003;65692;51.378;19.824;2023-02-11T03:26:00;45.00;39.50;27.50
55304;PMS7003;65692;51.378;19.824;2023-02-11T03:29:09;42.25;38.75;28.50
55304;PMS7003;65692;51.378;19.824;2023-02-11T03:31:54;45.00;34.50;27.00
55304;PMS7003;65692;51.378;19.824;2023-02-11T03:37:02;48.75;40.00;27.25
55304;PMS7003;65692;51.378;19.824;2023-02-11T03:39:35;43.50;34.25;26.75
55304;PMS7003;65692;51.378;19.824;2023-02-11T03:42:04;49.25;38.00;25.50
55304;PMS7003;65692;51.378;19.824;2023-02-11T03:44:35;45.25;38.25;28.00
55304;PMS7003;65692;51.378;19.824;2023-02-11T03:47:04;42.75;31.00;22.25
55304;PMS7003;65692;51.378;19.824;2023-02-11T03:49:39;60.00;38.50;27.50
55304;PMS7003;65692;51.378;19.824;2023-02-11T03:52:29;49.50;36.25;25.25
55304;PMS7003;65692;51.378;19.824;2023-02-11T03:55:46;36.25;28.00;16.00
55304;PMS7003;65692;51.378;19.824;2023-02-11T03:58:15;44.25;35.00;26.50
55304;PMS7003;65692;51.378;19.824;2023-02-11T04:00:42;40.25;37.00;27.25
55304;PMS7003;65692;51.378;19.824;2023-02-11T04:03:10;47.50;36.75;23.75
55304;PMS7003;65692;51.378;19.824;2023-02-11T04:05:37;42.25;30.00;21.50
55304;PMS7003;65692;51.378;19.824;2023-02-11T04:08:05;52.25;38.50;25.50
55304;PMS7003;65692;51.378;19.824;2023-02-11T04:10:45;52.50;43.00;29.50
55304;PMS7003;65692;51.378;19.824;2023-02-11T04:13:12;54.25;37.00;28.75
55304;PMS7003;65692;51.378;19.824;2023-02-11T04:15:40;52.50;40.50;27.25
55304;PMS7003;65692;51.378;19.824;2023-02-11T04:18:32;49.00;42.00;25.50
55304;PMS7003;65692;51.378;19.824;2023-02-11T04:21:19;48.00;42.75;29.00
55304;PMS7003;65692;51.378;19.824;2023-02-11T04:24:18;42.00;21.25;16.50
55304;PMS7003;65692;51.378;19.824;2023-02-11T04:27:10;46.50;40.50;28.25
55304;PMS7003;65692;51.378;19.824;2023-02-11T04:29:43;50.25;35.00;22.50
55304;PMS7003;65692;51.378;19.824;2023-02-11T04:32:10;51.00;36.75;25.25
55304;PMS7003;65692;51.378;19.824;2023-02-11T04:34:37;54.25;35.50;24.50
55304;PMS7003;65692;51.378;19.824;2023-02-11T04:37:28;54.00;40.50;27.50
55304;PMS7003;65692;51.378;19.824;2023-02-11T04:39:59;41.25;36.25;26.25
55304;PMS7003;65692;51.378;19.824;2023-02-11T04:42:43;46.25;41.75;25.75
55304;PMS7003;65692;51.378;19.824;2023-02-11T04:45:11;38.75;30.75;19.00
55304;PMS7003;65692;51.378;19.824;2023-02-11T04:50:54;54.75;42.75;30.75
55304;PMS7003;65692;51.378;19.824;2023-02-11T04:53:37;46.25;39.50;23.50
55304;PMS7003;65692;51.378;19.824;2023-02-11T04:56:14;49.00;38.25;28.75
55304;PMS7003;65692;51.378;19.824;2023-02-11T04:58:57;49.75;31.50;22.75
55304;PMS7003;65692;51.378;19.824;2023-02-11T05:01:46;45.75;36.25;24.75
55304;PMS7003;65692;51.378;19.824;2023-02-11T05:04:22;46.50;39.50;29.25
55304;PMS7003;65692;51.378;19.824;2023-02-11T05:07:32;40.25;36.75;28.50
55304;PMS7003;65692;51.378;19.824;2023-02-11T05:10:44;40.75;34.75;26.00
55304;PMS7003;65692;51.378;19.824;2023-02-11T05:13:25;41.00;36.50;23.75
55304;PMS7003;65692;51.378;19.824;2023-02-11T05:15:58;49.00;37.50;27.00
55304;PMS7003;65692;51.378;19.824;2023-02-11T05:18:29;56.75;42.25;28.00
55304;PMS7003;65692;51.378;19.824;2023-02-11T05:21:21;31.50;21.00;11.00
55304;PMS7003;65692;51.378;19.824;2023-02-11T05:24:26;51.75;38.75;26.00
55304;PMS7003;65692;51.378;19.824;2023-02-11T05:27:13;59.50;43.50;30.25
55304;PMS7003;65692;51.378;19.824;2023-02-11T05:29:54;50.00;39.75;28.25
55304;PMS7003;65692;51.378;19.824;2023-02-11T05:35:57;52.50;42.50;28.25
55304;PMS7003;65692;51.378;19.824;2023-02-11T06:10:02;69.33;47.33;30.33
55304;PMS7003;65692;51.378;19.824;2023-02-11T06:12:40;40.25;38.75;25.00
55304;PMS7003;65692;51.378;19.824;2023-02-11T06:15:24;54.50;46.00;30.25
55304;PMS7003;65692;51.378;19.824;2023-02-11T06:17:57;53.50;45.00;30.00
55304;PMS7003;65692;51.378;19.824;2023-02-11T06:20:37;55.00;35.25;15.50
55304;PMS7003;65692;51.378;19.824;2023-02-11T06:23:36;61.50;48.75;30.00
55304;PMS7003;65692;51.378;19.824;2023-02-11T06:26:40;54.75;42.25;30.00
55304;PMS7003;65692;51.378;19.824;2023-02-11T06:44:34;59.00;46.25;31.50
55304;PMS7003;65692;51.378;19.824;2023-02-11T06:47:21;56.25;36.50;25.25
55304;PMS7003;65692;51.378;19.824;2023-02-11T06:53:09;66.25;49.50;34.00
55304;PMS7003;65692;51.378;19.824;2023-02-11T06:56:44;59.75;48.25;32.25
55304;PMS7003;65692;51.378;19.824;2023-02-11T06:59:27;58.25;47.25;32.00
55304;PMS7003;65692;51.378;19.824;2023-02-11T07:02:38;49.25;43.25;30.75
55304;PMS7003;65692;51.378;19.824;2023-02-11T07:05:41;55.50;34.75;22.25
55304;PMS7003;65692;51.378;19.824;2023-02-11T07:25:04;65.75;48.25;33.25
55304;PMS7003;65692;51.378;19.824;2023-02-11T07:49:31;60.00;45.25;30.25
55304;PMS7003;65692;51.378;19.824;2023-02-11T07:52:07;65.25;51.00;33.25
55304;PMS7003;65692;51.378;19.824;2023-02-11T07:54:50;76.00;54.75;37.50
55304;PMS7003;65692;51.378;19.824;2023-02-11T07:57:22;63.50;47.50;34.00
55304;PMS7003;65692;51.378;19.824;2023-02-11T08:00:11;55.75;46.00;31.00
55304;PMS7003;65692;51.378;19.824;2023-02-11T08:02:39;64.00;51.50;33.00
55304;PMS7003;65692;51.378;19.824;2023-02-11T08:05:05;65.00;53.50;34.00
55304;PMS7003;65692;51.378;19.824;2023-02-11T08:10:09;65.00;45.25;32.00
55304;PMS7003;65692;51.378;19.824;2023-02-11T08:12:43;56.25;45.00;33.50
55304;PMS7003;65692;51.378;19.824;2023-02-11T08:23:09;61.50;48.00;30.75
55304;PMS7003;65692;51.378;19.824;2023-02-11T08:30:57;70.25;55.00;37.00
55304;PMS7003;65692;51.378;19.824;2023-02-11T08:33:29;66.75;50.50;33.25
55304;PMS7003;65692;51.378;19.824;2023-02-11T08:35:56;64.25;45.75;29.00
55304;PMS7003;65692;51.378;19.824;2023-02-11T08:38:23;67.50;46.75;32.00
55304;PMS7003;65692;51.378;19.824;2023-02-11T08:40:50;44.75;38.25;31.50
55304;PMS7003;65692;51.378;19.824;2023-02-11T08:43:16;56.25;39.00;22.00
55304;PMS7003;65692;51.378;19.824;2023-02-11T08:45:43;59.25;47.25;30.50
55304;PMS7003;65692;51.378;19.824;2023-02-11T08:48:10;68.25;44.75;30.00
55304;PMS7003;65692;51.378;19.824;2023-02-11T08:50:37;53.00;42.00;28.00
55304;PMS7003;65692;51.378;19.824;2023-02-11T08:53:04;68.00;49.50;31.25
55304;PMS7003;65692;51.378;19.824;2023-02-11T08:55:34;64.75;43.50;29.25
55304;PMS7003;65692;51.378;19.824;2023-02-11T08:58:00;54.75;45.25;29.75
55304;PMS7003;65692;51.378;19.824;2023-02-11T09:00:27;76.50;58.25;39.00
55304;PMS7003;65692;51.378;19.824;2023-02-11T09:02:53;74.50;60.75;40.25
55304;PMS7003;65692;51.378;19.824;2023-02-11T09:05:20;68.00;49.75;33.00
55304;PMS7003;65692;51.378;19.824;2023-02-11T09:07:47;69.75;54.00;36.00
55304;PMS7003;65692;51.378;19.824;2023-02-11T09:10:14;56.25;39.00;25.50
55304;PMS7003;65692;51.378;19.824;2023-02-11T09:12:41;59.50;44.25;31.25
55304;PMS7003;65692;51.378;19.824;2023-02-11T09:15:08;59.75;43.75;30.25
55304;PMS7003;65692;51.378;19.824;2023-02-11T09:17:34;58.75;43.50;28.75
55304;PMS7003;65692;51.378;19.824;2023-02-11T09:20:01;65.75;47.00;29.75
55304;PMS7003;65692;51.378;19.824;2023-02-11T09:22:27;62.25;46.50;32.00
55304;PMS7003;65692;51.378;19.824;2023-02-11T09:24:54;63.00;47.75;32.25
55304;PMS7003;65692;51.378;19.824;2023-02-11T09:27:20;57.75;43.25;29.25
55304;PMS7003;65692;51.378;19.824;2023-02-11T09:29:47;59.75;42.75;27.75
55304;PMS7003;65692;51.378;19.824;2023-02-11T09:32:13;63.25;46.75;30.00
55304;PMS7003;65692;51.378;19.824;2023-02-11T09:34:40;59.50;42.50;29.50
55304;PMS7003;65692;51.378;19.824;2023-02-11T09:37:06;45.00;37.50;28.50
55304;PMS7003;65692;51.378;19.824;2023-02-11T09:39:34;49.00;40.75;28.00
55304;PMS7003;65692;51.378;19.824;2023-02-11T09:42:09;51.75;37.25;22.50
55304;PMS7003;65692;51.378;19.824;2023-02-11T09:44:44;46.75;32.75;27.50
55304;PMS7003;65692;51.378;19.824;2023-02-11T09:49:39;61.25;44.00;28.00
55304;PMS7003;65692;51.378;19.824;2023-02-11T09:52:13;49.00;39.75;27.25
55304;PMS7003;65692;51.378;19.824;2023-02-11T09:54:53;62.25;44.25;30.25
55304;PMS7003;65692;51.378;19.824;2023-02-11T09:57:21;54.00;44.00;29.00
55304;PMS7003;65692;51.378;19.824;2023-02-11T09:59:54;59.75;49.50;31.50
55304;PMS7003;65692;51.378;19.824;2023-02-11T10:02:23;60.50;45.50;30.00
55304;PMS7003;65692;51.378;19.824;2023-02-11T10:10:03;59.00;45.50;30.50
55304;PMS7003;65692;51.378;19.824;2023-02-11T10:12:42;54.00;44.25;27.50
55304;PMS7003;65692;51.378;19.824;2023-02-11T10:17:46;52.50;43.75;30.00
55304;PMS7003;65692;51.378;19.824;2023-02-11T10:20:35;52.50;42.25;30.25
55304;PMS7003;65692;51.378;19.824;2023-02-11T10:23:20;63.25;46.75;31.50
55304;PMS7003;65692;51.378;19.824;2023-02-11T10:25:48;61.50;46.50;31.25
55304;PMS7003;65692;51.378;19.824;2023-02-11T10:28:17;71.50;52.75;35.50
55304;PMS7003;65692;51.378;19.824;2023-02-11T10:35:43;61.75;49.25;30.25
55304;PMS7003;65692;51.378;19.824;2023-02-11T10:38:11;61.75;45.00;30.75
55304;PMS7003;65692;51.378;19.824;2023-02-11T10:40:37;62.75;43.00;26.50
55304;PMS7003;65692;51.378;19.824;2023-02-11T10:43:05;50.75;42.75;28.50
55304;PMS7003;65692;51.378;19.824;2023-02-11T10:45:33;62.00;44.50;30.00
55304;PMS7003;65692;51.378;19.824;2023-02-11T10:48:05;65.25;47.50;33.00
55304;PMS7003;65692;51.378;19.824;2023-02-11T10:50:33;60.00;48.75;33.00
55304;PMS7003;65692;51.378;19.824;2023-02-11T10:53:19;62.75;46.25;29.00
55304;PMS7003;65692;51.378;19.824;2023-02-11T10:55:55;62.50;47.00;30.50
55304;PMS7003;65692;51.378;19.824;2023-02-11T10:58:24;44.00;36.75;22.50
55304;PMS7003;65692;51.378;19.824;2023-02-11T11:00:51;58.00;46.00;29.25
55304;PMS7003;65692;51.378;19.824;2023-02-11T11:03:20;56.25;45.00;30.00
55304;PMS7003;65692;51.378;19.824;2023-02-11T11:05:48;54.75;41.25;27.00
55304;PMS7003;65692;51.378;19.824;2023-02-11T11:08:15;64.75;46.25;30.00
55304;PMS7003;65692;51.378;19.824;2023-02-11T11:10:44;55.50;42.75;29.75
55304;PMS7003;65692;51.378;19.824;2023-02-11T11:13:25;59.50;45.50;28.75
55304;PMS7003;65692;51.378;19.824;2023-02-11T11:18:33;58.50;43.50;27.50
55304;PMS7003;65692;51.378;19.824;2023-02-11T11:21:01;54.50;44.00;29.75
55304;PMS7003;65692;51.378;19.824;2023-02-11T11:23:29;47.25;40.00;27.00
55304;PMS7003;65692;51.378;19.824;2023-02-11T11:26:00;51.75;40.50;29.25
55304;PMS7003;65692;51.378;19.824;2023-02-11T11:28:29;64.75;46.25;30.50
55304;PMS7003;65692;51.378;19.824;2023-02-11T11:30:56;51.50;41.00;27.00
55304;PMS7003;65692;51.378;19.824;2023-02-11T11:33:26;51.75;40.50;25.50
55304;PMS7003;65692;51.378;19.824;2023-02-11T11:36:03;45.75;36.75;25.75
55304;PMS7003;65692;51.378;19.824;2023-02-11T11:38:31;45.25;28.00;12.75
55304;PMS7003;65692;51.378;19.824;2023-02-11T11:41:23;46.00;41.25;29.25
55304;PMS7003;65692;51.378;19.824;2023-02-11T11:44:01;49.25;39.50;25.50
55304;PMS7003;65692;51.378;19.824;2023-02-11T11:49:00;52.00;40.25;27.00
55304;PMS7003;65692;51.378;19.824;2023-02-11T11:51:29;51.00;34.50;25.75
55304;PMS7003;65692;51.378;19.824;2023-02-11T11:53:59;44.50;39.50;27.50
55304;PMS7003;65692;51.378;19.824;2023-02-11T11:56:32;54.50;44.25;28.75
55304;PMS7003;65692;51.378;19.824;2023-02-11T11:59:00;45.50;33.75;23.25
55304;PMS7003;65692;51.378;19.824;2023-02-11T12:09:12;41.25;38.00;26.00
55304;PMS7003;65692;51.378;19.824;2023-02-11T12:14:17;70.25;56.00;35.75
55304;PMS7003;65692;51.378;19.824;2023-02-11T12:22:17;72.25;52.50;36.25
55304;PMS7003;65692;51.378;19.824;2023-02-11T12:27:38;65.00;50.00;31.50
55304;PMS7003;65692;51.378;19.824;2023-02-11T12:30:15;63.25;44.25;28.75
55304;PMS7003;65692;51.378;19.824;2023-02-11T12:32:48;52.00;41.25;29.50
55304;PMS7003;65692;51.378;19.824;2023-02-11T12:37:47;55.25;44.75;30.00
55304;PMS7003;65692;51.378;19.824;2023-02-11T12:40:25;56.75;42.50;29.75
55304;PMS7003;65692;51.378;19.824;2023-02-11T12:43:11;66.00;45.50;30.75
55304;PMS7003;65692;51.378;19.824;2023-02-11T12:45:48;55.75;42.50;26.00
55304;PMS7003;65692;51.378;19.824;2023-02-11T12:51:02;53.75;45.25;31.00
55304;PMS7003;65692;51.378;19.824;2023-02-11T12:56:22;57.25;42.25;29.25
55304;PMS7003;65692;51.378;19.824;2023-02-11T12:58:51;60.75;45.50;31.25
55304;PMS7003;65692;51.378;19.824;2023-02-11T13:01:28;49.00;43.25;29.75
55304;PMS7003;65692;51.378;19.824;2023-02-11T13:03:58;44.00;32.00;22.75
55304;PMS7003;65692;51.378;19.824;2023-02-11T13:06:40;65.75;50.75;33.00
55304;PMS7003;65692;51.378;19.824;2023-02-11T13:09:14;62.00;48.50;33.25
55304;PMS7003;65692;51.378;19.824;2023-02-11T13:11:45;64.50;49.75;33.00
55304;PMS7003;65692;51.378;19.824;2023-02-11T13:14:24;70.00;53.25;34.00
55304;PMS7003;65692;51.378;19.824;2023-02-11T13:16:54;66.75;51.00;31.75
55304;PMS7003;65692;51.378;19.824;2023-02-11T13:22:14;67.50;48.75;32.75
55304;PMS7003;65692;51.378;19.824;2023-02-11T13:24:56;70.25;49.00;31.25
55304;PMS7003;65692;51.378;19.824;2023-02-11T13:32:23;64.00;49.00;33.75
55304;PMS7003;65692;51.378;19.824;2023-02-11T13:40:06;70.50;54.50;35.25
55304;PMS7003;65692;51.378;19.824;2023-02-11T13:42:49;69.75;50.25;33.00
55304;PMS7003;65692;51.378;19.824;2023-02-11T13:45:17;60.75;48.00;32.25
55304;PMS7003;65692;51.378;19.824;2023-02-11T13:47:48;71.75;47.75;30.75
55304;PMS7003;65692;51.378;19.824;2023-02-11T13:50:22;64.75;52.25;34.50
55304;PMS7003;65692;51.378;19.824;2023-02-11T13:52:55;62.00;51.50;33.75
55304;PMS7003;65692;51.378;19.824;2023-02-11T13:55:22;65.75;49.75;34.00
55304;PMS7003;65692;51.378;19.824;2023-02-11T14:06:19;68.75;51.75;33.00
55304;PMS7003;65692;51.378;19.824;2023-02-11T14:22:02;58.75;47.75;30.00
55304;PMS7003;65692;51.378;19.824;2023-02-11T14:26:58;65.00;49.50;31.00
55304;PMS7003;65692;51.378;19.824;2023-02-11T14:40:34;65.25;45.25;30.25
55304;PMS7003;65692;51.378;19.824;2023-02-11T14:43:15;61.25;45.75;31.25
55304;PMS7003;65692;51.378;19.824;2023-02-11T14:45:47;60.00;47.00;30.75
55304;PMS7003;65692;51.378;19.824;2023-02-11T14:48:16;55.50;44.25;30.00
55304;PMS7003;65692;51.378;19.824;2023-02-11T14:50:45;57.50;39.00;25.75
55304;PMS7003;65692;51.378;19.824;2023-02-11T14:53:14;56.00;43.50;30.50
55304;PMS7003;65692;51.378;19.824;2023-02-11T14:55:43;59.75;42.50;27.50
55304;PMS7003;65692;51.378;19.824;2023-02-11T15:00:45;47.50;43.00;27.00
55304;PMS7003;65692;51.378;19.824;2023-02-11T15:03:29;50.00;41.50;27.00
55304;PMS7003;65692;51.378;19.824;2023-02-11T15:08:41;58.00;43.50;28.50
55304;PMS7003;65692;51.378;19.824;2023-02-11T15:11:10;56.50;45.00;30.00
55304;PMS7003;65692;51.378;19.824;2023-02-11T15:13:37;45.25;40.00;26.00
55304;PMS7003;65692;51.378;19.824;2023-02-11T15:16:05;59.50;47.75;30.75
55304;PMS7003;65692;51.378;19.824;2023-02-11T15:18:36;65.25;49.00;33.25
55304;PMS7003;65692;51.378;19.824;2023-02-11T15:21:04;69.00;51.00;32.50
55304;PMS7003;65692;51.378;19.824;2023-02-11T15:23:31;66.00;48.75;32.25
55304;PMS7003;65692;51.378;19.824;2023-02-11T15:25:58;60.25;48.50;31.50
55304;PMS7003;65692;51.378;19.824;2023-02-11T15:28:30;71.00;54.50;35.75
55304;PMS7003;65692;51.378;19.824;2023-02-11T15:31:03;70.00;55.25;36.50
55304;PMS7003;65692;51.378;19.824;2023-02-11T15:33:30;71.25;55.25;35.75
55304;PMS7003;65692;51.378;19.824;2023-02-11T15:35:58;60.25;48.50;32.75
55304;PMS7003;65692;51.378;19.824;2023-02-11T15:38:25;65.75;48.50;32.25
55304;PMS7003;65692;51.378;19.824;2023-02-11T15:40:53;66.00;48.75;33.25
55304;PMS7003;65692;51.378;19.824;2023-02-11T15:43:20;72.00;53.25;35.50
55304;PMS7003;65692;51.378;19.824;2023-02-11T15:48:22;66.00;48.50;31.25
55304;PMS7003;65692;51.378;19.824;2023-02-11T15:51:01;72.00;55.25;37.75
55304;PMS7003;65692;51.378;19.824;2023-02-11T15:53:32;61.50;44.75;30.00
55304;PMS7003;65692;51.378;19.824;2023-02-11T15:56:06;69.50;51.25;32.25
55304;PMS7003;65692;51.378;19.824;2023-02-11T15:58:36;68.75;47.75;32.75
55304;PMS7003;65692;51.378;19.824;2023-02-11T16:01:03;67.00;49.00;31.00
55304;PMS7003;65692;51.378;19.824;2023-02-11T16:03:29;65.50;51.00;33.00
55304;PMS7003;65692;51.378;19.824;2023-02-11T16:06:14;65.75;48.00;30.75
55304;PMS7003;65692;51.378;19.824;2023-02-11T16:08:41;66.25;51.25;32.25
55304;PMS7003;65692;51.378;19.824;2023-02-11T16:11:17;71.50;49.25;31.50
55304;PMS7003;65692;51.378;19.824;2023-02-11T16:13:48;63.75;49.00;31.25
55304;PMS7003;65692;51.378;19.824;2023-02-11T16:16:16;68.75;53.25;34.25
55304;PMS7003;65692;51.378;19.824;2023-02-11T16:18:44;64.25;47.25;32.25
55304;PMS7003;65692;51.378;19.824;2023-02-11T16:21:30;62.25;50.75;32.75
55304;PMS7003;65692;51.378;19.824;2023-02-11T16:23:59;59.00;47.75;31.25
55304;PMS7003;65692;51.378;19.824;2023-02-11T16:26:33;62.50;45.75;32.00
55304;PMS7003;65692;51.378;19.824;2023-02-11T16:29:05;67.50;47.50;28.50
55304;PMS7003;65692;51.378;19.824;2023-02-11T16:31:33;61.00;45.25;30.75
55304;PMS7003;65692;51.378;19.824;2023-02-11T16:34:00;65.50;48.50;30.75
55304;PMS7003;65692;51.378;19.824;2023-02-11T16:36:27;66.00;51.75;35.00
55304;PMS7003;65692;51.378;19.824;2023-02-11T16:38:53;65.00;47.50;33.00
55304;PMS7003;65692;51.378;19.824;2023-02-11T16:41:20;60.25;48.00;33.00
55304;PMS7003;65692;51.378;19.824;2023-02-11T16:43:47;82.25;59.75;38.25
55304;PMS7003;65692;51.378;19.824;2023-02-11T16:46:14;77.75;60.75;38.75
55304;PMS7003;65692;51.378;19.824;2023-02-11T16:48:41;77.25;55.50;34.50
55304;PMS7003;65692;51.378;19.824;2023-02-11T16:51:09;77.50;58.75;38.00
55304;PMS7003;65692;51.378;19.824;2023-02-11T16:53:36;73.00;53.00;34.25
55304;PMS7003;65692;51.378;19.824;2023-02-11T16:56:02;66.25;49.25;31.75
55304;PMS7003;65692;51.378;19.824;2023-02-11T16:58:29;74.50;54.00;36.25
55304;PMS7003;65692;51.378;19.824;2023-02-11T17:00:55;88.75;69.50;45.25
55304;PMS7003;65692;51.378;19.824;2023-02-11T17:03:23;94.25;72.25;46.00
55304;PMS7003;65692;51.378;19.824;2023-02-11T17:05:53;106.50;88.50;60.25
55304;PMS7003;65692;51.378;19.824;2023-02-11T17:08:21;89.75;67.00;45.75
55304;PMS7003;65692;51.378;19.824;2023-02-11T17:10:47;117.25;101.75;58.75
55304;PMS7003;65692;51.378;19.824;2023-02-11T17:13:14;115.00;87.00;52.75
55304;PMS7003;65692;51.378;19.824;2023-02-11T17:15:41;73.25;55.25;34.25
55304;PMS7003;65692;51.378;19.824;2023-02-11T17:18:08;74.75;56.00;34.75
55304;PMS7003;65692;51.378;19.824;2023-02-11T17:20:35;79.75;60.50;40.75
55304;PMS7003;65692;51.378;19.824;2023-02-11T17:23:01;79.25;59.50;38.25
55304;PMS7003;65692;51.378;19.824;2023-02-11T17:25:28;67.50;51.25;34.50
55304;PMS7003;65692;51.378;19.824;2023-02-11T17:27:54;63.25;43.00;27.25
55304;PMS7003;65692;51.378;19.824;2023-02-11T17:30:21;103.25;81.00;51.00
55304;PMS7003;65692;51.378;19.824;2023-02-11T17:32:48;94.75;68.75;43.00
55304;PMS7003;65692;51.378;19.824;2023-02-11T17:35:15;67.50;53.25;33.25
55304;PMS7003;65692;51.378;19.824;2023-02-11T17:37:41;79.50;61.25;40.25
55304;PMS7003;65692;51.378;19.824;2023-02-11T17:40:08;66.00;48.50;31.50
55304;PMS7003;65692;51.378;19.824;2023-02-11T17:42:35;64.25;50.50;32.75
55304;PMS7003;65692;51.378;19.824;2023-02-11T17:45:01;82.00;60.75;40.75
55304;PMS7003;65692;51.378;19.824;2023-02-11T17:47:28;75.50;59.00;38.50
55304;PMS7003;65692;51.378;19.824;2023-02-11T17:49:54;72.00;55.50;36.75
55304;PMS7003;65692;51.378;19.824;2023-02-11T17:52:21;93.75;71.50;46.25
55304;PMS7003;65692;51.378;19.824;2023-02-11T17:54:49;70.00;51.50;34.00
55304;PMS7003;65692;51.378;19.824;2023-02-11T17:57:16;67.25;52.25;35.25
55304;PMS7003;65692;51.378;19.824;2023-02-11T17:59:43;77.25;56.25;36.00
55304;PMS7003;65692;51.378;19.824;2023-02-11T18:02:10;83.50;61.50;40.75
55304;PMS7003;65692;51.378;19.824;2023-02-11T18:04:37;59.75;47.25;32.50
55304;PMS7003;65692;51.378;19.824;2023-02-11T18:07:04;58.00;42.00;28.50
55304;PMS7003;65692;51.378;19.824;2023-02-11T18:09:31;61.50;48.00;32.75
55304;PMS7003;65692;51.378;19.824;2023-02-11T18:12:01;58.00;45.00;30.25
55304;PMS7003;65692;51.378;19.824;2023-02-11T18:14:27;65.00;46.75;30.00
55304;PMS7003;65692;51.378;19.824;2023-02-11T18:16:53;63.00;47.50;29.75
55304;PMS7003;65692;51.378;19.824;2023-02-11T18:19:20;63.75;50.00;32.00
55304;PMS7003;65692;51.378;19.824;2023-02-11T18:21:46;73.75;53.50;37.00
55304;PMS7003;65692;51.378;19.824;2023-02-11T18:24:15;76.75;57.00;38.25
55304;PMS7003;65692;51.378;19.824;2023-02-11T18:26:42;67.25;52.00;33.75
55304;PMS7003;65692;51.378;19.824;2023-02-11T18:29:09;63.25;52.50;36.00
55304;PMS7003;65692;51.378;19.824;2023-02-11T18:31:35;63.00;48.75;32.25